WUK7863 EGGW-LEZL
Flight info
| Callsign | WUK7863 |
|---|---|
| Flight time | 2h 29m |
| Altitude | 36000 |
| Route | RODNI N27 ICTAM Q63 CPT Y321 PEPIS Q41 SAM M195 MARUK N621 LELNA DCT ERCOZ DCT NOVAN DCT DELOG N864 RATAS DCT NEA DCT NONTU DCT ORBIS DCT DISKO DCT TLD DCT DOPEN DCT MONTO DCT MOLIN N857 HIJ |
| Aircraft | A21N/M-SDE1E2E3FGIJ1J4RWXY/LB1 |
Departure
| Time | 2026-04-18 05:22 |
|---|---|
| Airport | London Luton Airport (EGGW) |
Arrival
| Time | 2026-04-18 07:52 |
|---|---|
| Airport | Seville Airport (LEZL) |
| Time | Latitude | Longitude | Altitude | Speed | Heading |
|---|---|---|---|---|---|
| 2026-04-18 04:33 | 51.88167 | -0.37374 | 522 ft | 0 kts | 161° |
| 2026-04-18 05:10 | 51.88176 | -0.37379 | 522 ft | 4 kts | 161° |
| 2026-04-18 05:10 | 51.88201 | -0.37392 | 522 ft | 4 kts | 150° |
| 2026-04-18 05:11 | 51.88211 | -0.37415 | 522 ft | 4 kts | 79° |
| 2026-04-18 05:11 | 51.88205 | -0.37447 | 522 ft | 4 kts | 71° |
| 2026-04-18 05:11 | 51.88203 | -0.37458 | 522 ft | 0 kts | 71° |
| 2026-04-18 05:15 | 51.88210 | -0.37424 | 522 ft | 5 kts | 72° |
| 2026-04-18 05:15 | 51.88222 | -0.37368 | 522 ft | 6 kts | 72° |
| 2026-04-18 05:16 | 51.88236 | -0.37295 | 522 ft | 8 kts | 73° |
| 2026-04-18 05:16 | 51.88239 | -0.37275 | 522 ft | 2 kts | 82° |
| 2026-04-18 05:16 | 51.88219 | -0.37247 | 522 ft | 5 kts | 145° |
| 2026-04-18 05:16 | 51.88173 | -0.37213 | 522 ft | 10 kts | 160° |
| 2026-04-18 05:17 | 51.88102 | -0.37177 | 515 ft | 12 kts | 162° |
| 2026-04-18 05:17 | 51.88010 | -0.37128 | 514 ft | 15 kts | 162° |
| 2026-04-18 05:17 | 51.87906 | -0.37071 | 514 ft | 16 kts | 159° |
| 2026-04-18 05:17 | 51.87793 | -0.37012 | 521 ft | 18 kts | 163° |
| 2026-04-18 05:18 | 51.87672 | -0.36946 | 529 ft | 17 kts | 147° |
| 2026-04-18 05:18 | 51.87665 | -0.36762 | 529 ft | 18 kts | 72° |
| 2026-04-18 05:18 | 51.87696 | -0.36590 | 526 ft | 11 kts | 75° |
| 2026-04-18 05:18 | 51.87716 | -0.36466 | 525 ft | 12 kts | 76° |
| 2026-04-18 05:19 | 51.87739 | -0.36334 | 523 ft | 13 kts | 74° |
| 2026-04-18 05:19 | 51.87763 | -0.36190 | 524 ft | 14 kts | 75° |
| 2026-04-18 05:19 | 51.87783 | -0.36032 | 522 ft | 15 kts | 96° |
| 2026-04-18 05:19 | 51.87703 | -0.35934 | 521 ft | 16 kts | 166° |
| 2026-04-18 05:20 | 51.87640 | -0.35823 | 520 ft | 17 kts | 73° |
| 2026-04-18 05:20 | 51.87671 | -0.35635 | 518 ft | 18 kts | 75° |
| 2026-04-18 05:20 | 51.87711 | -0.35450 | 522 ft | 17 kts | 44° |
| 2026-04-18 05:20 | 51.87712 | -0.35395 | 523 ft | 7 kts | 251° |
| 2026-04-18 05:21 | 51.87706 | -0.35428 | 522 ft | 0 kts | 256° |
| 2026-04-18 05:22 | 51.87704 | -0.35444 | 522 ft | 12 kts | 256° |
| 2026-04-18 05:22 | 51.87610 | -0.35981 | 521 ft | 84 kts | 255° |
| 2026-04-18 05:22 | 51.87395 | -0.37229 | 529 ft | 144 kts | 254° |
| 2026-04-18 05:22 | 51.87123 | -0.38780 | 1156 ft | 141 kts | 255° |
| 2026-04-18 05:23 | 51.86705 | -0.40210 | 1781 ft | 146 kts | 229° |
| 2026-04-18 05:23 | 51.85733 | -0.40909 | 2161 ft | 163 kts | 198° |
| 2026-04-18 05:23 | 51.84652 | -0.41576 | 2493 ft | 173 kts | 225° |
| 2026-04-18 05:23 | 51.83782 | -0.43029 | 2891 ft | 189 kts | 229° |
| 2026-04-18 05:24 | 51.82773 | -0.44541 | 3398 ft | 206 kts | 225° |
| 2026-04-18 05:24 | 51.81677 | -0.46215 | 3739 ft | 228 kts | 233° |
| 2026-04-18 05:24 | 51.80907 | -0.48521 | 4248 ft | 240 kts | 253° |
| 2026-04-18 05:24 | 51.80473 | -0.51166 | 5044 ft | 245 kts | 256° |
| 2026-04-18 05:25 | 51.80057 | -0.53850 | 5918 ft | 247 kts | 255° |
| 2026-04-18 05:25 | 51.79629 | -0.56544 | 6791 ft | 249 kts | 253° |
| 2026-04-18 05:25 | 51.79191 | -0.59259 | 7590 ft | 251 kts | 253° |
| 2026-04-18 05:25 | 51.78746 | -0.62006 | 8374 ft | 254 kts | 253° |
| 2026-04-18 05:26 | 51.78292 | -0.64783 | 9149 ft | 258 kts | 253° |
| 2026-04-18 05:26 | 51.77831 | -0.67598 | 9914 ft | 261 kts | 253° |
| 2026-04-18 05:26 | 51.77360 | -0.70461 | 10512 ft | 270 kts | 253° |
| 2026-04-18 05:26 | 51.76859 | -0.73486 | 10827 ft | 288 kts | 253° |
| 2026-04-18 05:27 | 51.76319 | -0.76680 | 11239 ft | 301 kts | 252° |
| 2026-04-18 05:27 | 51.75437 | -0.79755 | 11864 ft | 305 kts | 235° |
| 2026-04-18 05:27 | 51.74025 | -0.82323 | 12591 ft | 308 kts | 226° |
| 2026-04-18 05:27 | 51.72492 | -0.84753 | 13344 ft | 310 kts | 226° |
| 2026-04-18 05:28 | 51.70943 | -0.87202 | 14086 ft | 313 kts | 226° |
| 2026-04-18 05:28 | 51.69403 | -0.89645 | 14723 ft | 315 kts | 226° |
| 2026-04-18 05:28 | 51.67821 | -0.92167 | 15425 ft | 318 kts | 226° |
| 2026-04-18 05:28 | 51.66246 | -0.94679 | 16073 ft | 320 kts | 226° |
| 2026-04-18 05:29 | 51.64661 | -0.97209 | 16770 ft | 322 kts | 226° |
| 2026-04-18 05:29 | 51.63066 | -0.99757 | 17465 ft | 324 kts | 226° |
| 2026-04-18 05:29 | 51.61464 | -1.02317 | 18138 ft | 326 kts | 226° |
| 2026-04-18 05:29 | 51.59850 | -1.04892 | 18760 ft | 328 kts | 226° |
| 2026-04-18 05:30 | 51.58228 | -1.07480 | 19331 ft | 330 kts | 226° |
| 2026-04-18 05:30 | 51.56593 | -1.10085 | 19883 ft | 332 kts | 226° |
| 2026-04-18 05:30 | 51.54973 | -1.12664 | 20433 ft | 334 kts | 226° |
| 2026-04-18 05:30 | 51.53319 | -1.15298 | 20988 ft | 336 kts | 226° |
| 2026-04-18 05:31 | 51.51654 | -1.17944 | 21532 ft | 338 kts | 226° |
| 2026-04-18 05:31 | 51.49821 | -1.20330 | 22070 ft | 343 kts | 215° |
| 2026-04-18 05:31 | 51.47622 | -1.21906 | 22594 ft | 352 kts | 200° |
| 2026-04-18 05:31 | 51.45162 | -1.22483 | 23120 ft | 362 kts | 189° |
| 2026-04-18 05:32 | 51.42633 | -1.22646 | 23656 ft | 365 kts | 188° |
| 2026-04-18 05:32 | 51.40946 | -1.22731 | 23962 ft | 367 kts | 188° |
| 2026-04-18 05:32 | 51.38357 | -1.22884 | 24400 ft | 368 kts | 189° |
| 2026-04-18 05:32 | 51.35830 | -1.23060 | 24825 ft | 369 kts | 189° |
| 2026-04-18 05:33 | 51.33259 | -1.23255 | 25245 ft | 371 kts | 189° |
| 2026-04-18 05:33 | 51.30685 | -1.23458 | 25634 ft | 372 kts | 190° |
| 2026-04-18 05:33 | 51.28090 | -1.23670 | 26052 ft | 373 kts | 190° |
| 2026-04-18 05:33 | 51.25489 | -1.23883 | 26464 ft | 375 kts | 190° |
| 2026-04-18 05:34 | 51.22878 | -1.24094 | 26869 ft | 376 kts | 190° |
| 2026-04-18 05:34 | 51.20265 | -1.24345 | 27261 ft | 375 kts | 193° |
| 2026-04-18 05:34 | 51.17723 | -1.25104 | 27638 ft | 370 kts | 200° |
| 2026-04-18 05:34 | 51.15231 | -1.26159 | 28021 ft | 371 kts | 202° |
| 2026-04-18 05:35 | 51.12741 | -1.27250 | 28417 ft | 372 kts | 202° |
| 2026-04-18 05:35 | 51.10242 | -1.28335 | 28790 ft | 374 kts | 202° |
| 2026-04-18 05:35 | 51.07725 | -1.29417 | 29160 ft | 375 kts | 201° |
| 2026-04-18 05:35 | 51.05200 | -1.30488 | 29518 ft | 377 kts | 201° |
| 2026-04-18 05:36 | 51.02656 | -1.31556 | 29874 ft | 378 kts | 201° |
| 2026-04-18 05:36 | 51.00109 | -1.32617 | 30206 ft | 380 kts | 201° |
| 2026-04-18 05:36 | 50.97550 | -1.33694 | 30481 ft | 380 kts | 202° |
| 2026-04-18 05:36 | 50.95082 | -1.35129 | 30719 ft | 376 kts | 211° |
| 2026-04-18 05:37 | 50.92822 | -1.37180 | 30946 ft | 374 kts | 217° |
| 2026-04-18 05:37 | 50.90647 | -1.39461 | 31154 ft | 376 kts | 218° |
| 2026-04-18 05:37 | 50.88472 | -1.41770 | 31382 ft | 378 kts | 218° |
| 2026-04-18 05:37 | 50.86274 | -1.44097 | 31518 ft | 381 kts | 218° |
| 2026-04-18 05:38 | 50.84057 | -1.46426 | 31739 ft | 383 kts | 218° |
| 2026-04-18 05:38 | 50.81828 | -1.48753 | 31923 ft | 385 kts | 218° |
| 2026-04-18 05:38 | 50.79582 | -1.51089 | 32118 ft | 387 kts | 217° |
| 2026-04-18 05:38 | 50.77321 | -1.53428 | 32308 ft | 389 kts | 217° |
| 2026-04-18 05:39 | 50.75055 | -1.55768 | 32547 ft | 389 kts | 217° |
| 2026-04-18 05:39 | 50.72788 | -1.58115 | 32784 ft | 390 kts | 217° |
| 2026-04-18 05:39 | 50.70524 | -1.60455 | 33018 ft | 390 kts | 217° |
| 2026-04-18 05:39 | 50.68246 | -1.62792 | 33236 ft | 390 kts | 217° |
| 2026-04-18 05:40 | 50.65973 | -1.65121 | 33439 ft | 390 kts | 217° |
| 2026-04-18 05:40 | 50.63696 | -1.67460 | 33634 ft | 391 kts | 217° |
| 2026-04-18 05:40 | 50.61420 | -1.69794 | 33840 ft | 390 kts | 217° |
| 2026-04-18 05:40 | 50.59150 | -1.72131 | 34085 ft | 389 kts | 217° |
| 2026-04-18 05:41 | 50.56889 | -1.74459 | 34283 ft | 389 kts | 217° |
| 2026-04-18 05:41 | 50.54620 | -1.76788 | 34420 ft | 389 kts | 217° |
| 2026-04-18 05:41 | 50.52350 | -1.79105 | 34572 ft | 389 kts | 217° |
| 2026-04-18 05:41 | 50.50083 | -1.81405 | 34841 ft | 386 kts | 217° |
| 2026-04-18 05:42 | 50.47843 | -1.83679 | 35169 ft | 380 kts | 217° |
| 2026-04-18 05:42 | 50.45643 | -1.85916 | 35485 ft | 375 kts | 217° |
| 2026-04-18 05:42 | 50.43492 | -1.88107 | 35735 ft | 372 kts | 217° |
| 2026-04-18 05:42 | 50.41307 | -1.90332 | 35975 ft | 368 kts | 217° |
| 2026-04-18 05:43 | 50.39177 | -1.92500 | 36189 ft | 364 kts | 217° |
| 2026-04-18 05:43 | 50.37083 | -1.94624 | 36286 ft | 364 kts | 217° |
| 2026-04-18 05:43 | 50.32809 | -1.98950 | 36281 ft | 368 kts | 217° |
| 2026-04-18 05:44 | 50.28480 | -2.03334 | 36272 ft | 373 kts | 217° |
| 2026-04-18 05:44 | 50.23789 | -2.07032 | 36271 ft | 387 kts | 201° |
| 2026-04-18 05:45 | 50.18345 | -2.08216 | 36262 ft | 402 kts | 190° |
| 2026-04-18 05:45 | 50.12727 | -2.08813 | 36258 ft | 407 kts | 191° |
| 2026-04-18 05:46 | 50.07033 | -2.09505 | 36272 ft | 413 kts | 191° |
| 2026-04-18 05:46 | 50.01279 | -2.10257 | 36265 ft | 414 kts | 193° |
| 2026-04-18 05:47 | 49.95903 | -2.12755 | 36271 ft | 399 kts | 213° |
| 2026-04-18 05:47 | 49.91188 | -2.17194 | 36272 ft | 395 kts | 216° |
| 2026-04-18 05:48 | 49.86501 | -2.21666 | 36273 ft | 396 kts | 216° |
| 2026-04-18 05:48 | 49.81790 | -2.26080 | 36274 ft | 396 kts | 215° |
| 2026-04-18 05:49 | 49.77088 | -2.30486 | 36280 ft | 398 kts | 216° |
| 2026-04-18 05:49 | 49.72345 | -2.34918 | 36278 ft | 399 kts | 216° |
| 2026-04-18 05:50 | 49.67608 | -2.39327 | 36275 ft | 397 kts | 216° |
| 2026-04-18 05:50 | 49.62880 | -2.43719 | 36284 ft | 397 kts | 216° |
| 2026-04-18 05:51 | 49.58143 | -2.48106 | 36282 ft | 397 kts | 216° |
| 2026-04-18 05:51 | 49.53410 | -2.52473 | 36288 ft | 397 kts | 215° |
| 2026-04-18 05:52 | 49.48670 | -2.56848 | 36255 ft | 397 kts | 216° |
| 2026-04-18 05:52 | 49.43949 | -2.61187 | 36281 ft | 395 kts | 216° |
| 2026-04-18 05:53 | 49.39224 | -2.65528 | 36288 ft | 395 kts | 216° |
| 2026-04-18 05:53 | 49.34489 | -2.69859 | 36300 ft | 398 kts | 215° |
| 2026-04-18 05:54 | 49.29734 | -2.74200 | 36291 ft | 398 kts | 215° |
| 2026-04-18 05:54 | 49.24980 | -2.78528 | 36270 ft | 396 kts | 216° |
| 2026-04-18 05:55 | 49.20252 | -2.82832 | 36284 ft | 396 kts | 216° |
| 2026-04-18 05:55 | 49.15518 | -2.87126 | 36290 ft | 396 kts | 216° |
| 2026-04-18 05:56 | 49.10780 | -2.91411 | 36294 ft | 396 kts | 215° |
| 2026-04-18 05:56 | 49.06072 | -2.95658 | 36290 ft | 396 kts | 215° |
| 2026-04-18 05:57 | 48.98978 | -3.02057 | 36290 ft | 394 kts | 216° |
| 2026-04-18 05:58 | 48.94257 | -3.06298 | 36290 ft | 394 kts | 215° |
| 2026-04-18 05:58 | 48.89515 | -3.10544 | 36297 ft | 396 kts | 215° |
| 2026-04-18 05:59 | 48.84765 | -3.14797 | 36296 ft | 397 kts | 215° |
| 2026-04-18 05:59 | 48.80005 | -3.19043 | 36299 ft | 397 kts | 215° |
| 2026-04-18 06:00 | 48.75241 | -3.23278 | 36297 ft | 397 kts | 215° |
| 2026-04-18 06:00 | 48.70481 | -3.27510 | 36300 ft | 397 kts | 215° |
| 2026-04-18 06:01 | 48.65718 | -3.31730 | 36304 ft | 397 kts | 215° |
| 2026-04-18 06:01 | 48.60951 | -3.35945 | 36303 ft | 397 kts | 215° |
| 2026-04-18 06:02 | 48.56200 | -3.40137 | 36294 ft | 395 kts | 215° |
| 2026-04-18 06:02 | 48.51463 | -3.44305 | 36302 ft | 394 kts | 215° |
| 2026-04-18 06:03 | 48.46713 | -3.48481 | 36316 ft | 396 kts | 215° |
| 2026-04-18 06:03 | 48.41975 | -3.52634 | 36312 ft | 397 kts | 215° |
| 2026-04-18 06:04 | 48.37211 | -3.56800 | 36281 ft | 396 kts | 215° |
| 2026-04-18 06:04 | 48.32116 | -3.60049 | 36298 ft | 406 kts | 199° |
| 2026-04-18 06:05 | 48.26391 | -3.60728 | 36309 ft | 416 kts | 188° |
| 2026-04-18 06:05 | 48.20599 | -3.60902 | 36307 ft | 416 kts | 188° |
| 2026-04-18 06:06 | 48.14813 | -3.61163 | 36289 ft | 416 kts | 189° |
| 2026-04-18 06:06 | 48.09033 | -3.61445 | 36305 ft | 415 kts | 189° |
| 2026-04-18 06:07 | 48.03253 | -3.61730 | 36304 ft | 416 kts | 189° |
| 2026-04-18 06:07 | 47.97471 | -3.62016 | 36296 ft | 416 kts | 189° |
| 2026-04-18 06:08 | 47.91683 | -3.62295 | 36280 ft | 416 kts | 189° |
| 2026-04-18 06:08 | 47.85894 | -3.62578 | 36289 ft | 416 kts | 189° |
| 2026-04-18 06:09 | 47.80105 | -3.62863 | 36290 ft | 416 kts | 189° |
| 2026-04-18 06:09 | 47.74310 | -3.63149 | 36265 ft | 416 kts | 189° |
| 2026-04-18 06:10 | 47.68508 | -3.63432 | 36283 ft | 417 kts | 189° |
| 2026-04-18 06:10 | 47.62706 | -3.63711 | 36288 ft | 417 kts | 189° |
| 2026-04-18 06:11 | 47.56940 | -3.63994 | 36289 ft | 417 kts | 189° |
| 2026-04-18 06:11 | 47.51132 | -3.64274 | 36270 ft | 417 kts | 189° |
| 2026-04-18 06:12 | 47.45331 | -3.64555 | 36283 ft | 417 kts | 189° |
| 2026-04-18 06:12 | 47.39530 | -3.64835 | 36280 ft | 417 kts | 189° |
| 2026-04-18 06:13 | 47.33729 | -3.65118 | 36284 ft | 417 kts | 189° |
| 2026-04-18 06:13 | 47.27926 | -3.65404 | 36274 ft | 417 kts | 188° |
| 2026-04-18 06:14 | 47.22131 | -3.65681 | 36279 ft | 417 kts | 188° |
| 2026-04-18 06:14 | 47.16335 | -3.65957 | 36281 ft | 417 kts | 188° |
| 2026-04-18 06:15 | 47.10532 | -3.66233 | 36270 ft | 417 kts | 188° |
| 2026-04-18 06:15 | 47.04736 | -3.66512 | 36281 ft | 417 kts | 188° |
| 2026-04-18 06:16 | 46.98940 | -3.66791 | 36289 ft | 417 kts | 188° |
| 2026-04-18 06:16 | 46.93142 | -3.67062 | 36282 ft | 417 kts | 188° |
| 2026-04-18 06:17 | 46.87343 | -3.67336 | 36287 ft | 417 kts | 188° |
| 2026-04-18 06:17 | 46.81544 | -3.67610 | 36285 ft | 417 kts | 188° |
| 2026-04-18 06:18 | 46.75788 | -3.67881 | 36277 ft | 417 kts | 188° |
| 2026-04-18 06:18 | 46.69997 | -3.68153 | 36284 ft | 416 kts | 188° |
| 2026-04-18 06:19 | 46.64204 | -3.68424 | 36280 ft | 417 kts | 188° |
| 2026-04-18 06:19 | 46.58410 | -3.68696 | 36276 ft | 417 kts | 188° |
| 2026-04-18 06:20 | 46.52619 | -3.68967 | 36281 ft | 417 kts | 188° |
| 2026-04-18 06:20 | 46.46824 | -3.69236 | 36275 ft | 417 kts | 188° |
| 2026-04-18 06:21 | 46.41028 | -3.69506 | 36276 ft | 417 kts | 188° |
| 2026-04-18 06:21 | 46.35233 | -3.69776 | 36277 ft | 417 kts | 188° |
| 2026-04-18 06:22 | 46.29468 | -3.70305 | 36257 ft | 414 kts | 192° |
| 2026-04-18 06:22 | 46.23736 | -3.71167 | 36273 ft | 414 kts | 192° |
| 2026-04-18 06:23 | 46.18967 | -3.71886 | 36276 ft | 415 kts | 192° |
| 2026-04-18 06:23 | 46.13229 | -3.72739 | 36276 ft | 415 kts | 192° |
| 2026-04-18 06:24 | 46.07492 | -3.73590 | 36270 ft | 414 kts | 192° |
| 2026-04-18 06:24 | 46.01753 | -3.74441 | 36274 ft | 414 kts | 192° |
| 2026-04-18 06:25 | 45.96017 | -3.75298 | 36276 ft | 414 kts | 192° |
| 2026-04-18 06:25 | 45.90280 | -3.76149 | 36258 ft | 414 kts | 191° |
| 2026-04-18 06:26 | 45.84543 | -3.76992 | 36272 ft | 414 kts | 191° |
| 2026-04-18 06:26 | 45.78804 | -3.77837 | 36276 ft | 414 kts | 191° |
| 2026-04-18 06:27 | 45.73071 | -3.78681 | 36278 ft | 414 kts | 191° |
| 2026-04-18 06:27 | 45.67328 | -3.79524 | 36268 ft | 415 kts | 191° |
| 2026-04-18 06:28 | 45.61586 | -3.80364 | 36276 ft | 415 kts | 191° |
| 2026-04-18 06:28 | 45.55837 | -3.81201 | 36277 ft | 415 kts | 191° |
| 2026-04-18 06:29 | 45.50092 | -3.82037 | 36270 ft | 415 kts | 191° |
| 2026-04-18 06:29 | 45.44340 | -3.82871 | 36277 ft | 416 kts | 191° |
| 2026-04-18 06:30 | 45.38585 | -3.83699 | 36276 ft | 416 kts | 191° |
| 2026-04-18 06:30 | 45.32830 | -3.84530 | 36277 ft | 416 kts | 191° |
| 2026-04-18 06:31 | 45.27067 | -3.85366 | 36273 ft | 417 kts | 191° |
| 2026-04-18 06:31 | 45.21292 | -3.86196 | 36283 ft | 417 kts | 191° |
| 2026-04-18 06:32 | 45.15560 | -3.87019 | 36279 ft | 416 kts | 191° |
| 2026-04-18 06:32 | 45.09758 | -3.87847 | 36281 ft | 417 kts | 191° |
| 2026-04-18 06:33 | 45.04022 | -3.88671 | 36274 ft | 417 kts | 191° |
| 2026-04-18 06:33 | 44.98247 | -3.89504 | 36272 ft | 417 kts | 191° |
| 2026-04-18 06:34 | 44.92472 | -3.90330 | 36256 ft | 417 kts | 191° |
| 2026-04-18 06:34 | 44.86692 | -3.91156 | 36277 ft | 418 kts | 191° |
| 2026-04-18 06:35 | 44.80904 | -3.91979 | 36276 ft | 418 kts | 191° |
| 2026-04-18 06:35 | 44.75122 | -3.92803 | 36277 ft | 418 kts | 191° |
| 2026-04-18 06:36 | 44.69334 | -3.93620 | 36277 ft | 418 kts | 191° |
| 2026-04-18 06:36 | 44.63546 | -3.94438 | 36278 ft | 418 kts | 191° |
| 2026-04-18 06:37 | 44.57760 | -3.95250 | 36278 ft | 418 kts | 191° |
| 2026-04-18 06:37 | 44.51975 | -3.96072 | 36265 ft | 418 kts | 191° |
| 2026-04-18 06:38 | 44.46184 | -3.96897 | 36275 ft | 418 kts | 191° |
| 2026-04-18 06:38 | 44.40399 | -3.97708 | 36278 ft | 418 kts | 190° |
| 2026-04-18 06:39 | 44.34607 | -3.98515 | 36270 ft | 418 kts | 190° |
| 2026-04-18 06:39 | 44.28783 | -3.98408 | 36278 ft | 424 kts | 181° |
| 2026-04-18 06:40 | 44.22887 | -3.97795 | 36278 ft | 425 kts | 181° |
| 2026-04-18 06:40 | 44.16998 | -3.97204 | 36279 ft | 425 kts | 181° |
| 2026-04-18 06:41 | 44.11105 | -3.96629 | 36269 ft | 424 kts | 181° |
| 2026-04-18 06:41 | 44.05216 | -3.96055 | 36265 ft | 424 kts | 181° |
| 2026-04-18 06:42 | 43.99328 | -3.95487 | 36269 ft | 424 kts | 181° |
| 2026-04-18 06:42 | 43.93436 | -3.94912 | 36267 ft | 424 kts | 181° |
| 2026-04-18 06:43 | 43.87545 | -3.94340 | 36275 ft | 424 kts | 181° |
| 2026-04-18 06:43 | 43.81656 | -3.93778 | 36276 ft | 424 kts | 181° |
| 2026-04-18 06:44 | 43.75765 | -3.93206 | 36260 ft | 424 kts | 181° |
| 2026-04-18 06:44 | 43.69873 | -3.92644 | 36272 ft | 424 kts | 181° |
| 2026-04-18 06:45 | 43.63978 | -3.92085 | 36269 ft | 424 kts | 181° |
| 2026-04-18 06:45 | 43.58089 | -3.91524 | 36283 ft | 424 kts | 181° |
| 2026-04-18 06:46 | 43.52196 | -3.90968 | 36281 ft | 425 kts | 181° |
| 2026-04-18 06:46 | 43.46300 | -3.90418 | 36287 ft | 424 kts | 182° |
| 2026-04-18 06:47 | 43.40466 | -3.90884 | 36289 ft | 419 kts | 191° |
| 2026-04-18 06:47 | 43.34674 | -3.91789 | 36282 ft | 419 kts | 191° |
| 2026-04-18 06:48 | 43.28873 | -3.92664 | 36284 ft | 420 kts | 190° |
| 2026-04-18 06:48 | 43.23102 | -3.93520 | 36281 ft | 420 kts | 190° |
| 2026-04-18 06:49 | 43.17299 | -3.94377 | 36273 ft | 420 kts | 190° |
| 2026-04-18 06:49 | 43.11488 | -3.95230 | 36264 ft | 420 kts | 190° |
| 2026-04-18 06:50 | 43.05667 | -3.96084 | 36263 ft | 421 kts | 190° |
| 2026-04-18 06:50 | 42.99843 | -3.96941 | 36256 ft | 421 kts | 190° |
| 2026-04-18 06:51 | 42.94022 | -3.97793 | 36244 ft | 421 kts | 190° |
| 2026-04-18 06:51 | 42.88192 | -3.98644 | 36253 ft | 422 kts | 190° |
| 2026-04-18 06:52 | 42.82354 | -3.99496 | 36251 ft | 422 kts | 190° |
| 2026-04-18 06:52 | 42.76519 | -4.00345 | 36241 ft | 422 kts | 190° |
| 2026-04-18 06:53 | 42.70680 | -4.01194 | 36237 ft | 422 kts | 190° |
| 2026-04-18 06:53 | 42.64844 | -4.02041 | 36239 ft | 422 kts | 190° |
| 2026-04-18 06:54 | 42.59008 | -4.02885 | 36231 ft | 422 kts | 190° |
| 2026-04-18 06:54 | 42.53171 | -4.03731 | 36213 ft | 422 kts | 190° |
| 2026-04-18 06:55 | 42.47330 | -4.04575 | 36223 ft | 422 kts | 190° |
| 2026-04-18 06:55 | 42.41525 | -4.05408 | 36222 ft | 422 kts | 190° |
| 2026-04-18 06:56 | 42.35655 | -4.06249 | 36218 ft | 422 kts | 190° |
| 2026-04-18 06:56 | 42.29807 | -4.07088 | 36217 ft | 423 kts | 190° |
| 2026-04-18 06:57 | 42.23996 | -4.07921 | 36217 ft | 423 kts | 190° |
| 2026-04-18 06:57 | 42.15221 | -4.09176 | 36217 ft | 423 kts | 190° |
| 2026-04-18 06:58 | 42.09367 | -4.10008 | 36211 ft | 424 kts | 189° |
| 2026-04-18 06:58 | 42.03501 | -4.10844 | 36216 ft | 424 kts | 189° |
| 2026-04-18 06:59 | 41.97557 | -4.11542 | 36216 ft | 425 kts | 188° |
| 2026-04-18 06:59 | 41.91721 | -4.12206 | 36214 ft | 425 kts | 188° |
| 2026-04-18 07:00 | 41.85821 | -4.12880 | 36213 ft | 426 kts | 188° |
| 2026-04-18 07:00 | 41.79918 | -4.13552 | 36215 ft | 426 kts | 188° |
| 2026-04-18 07:01 | 41.74007 | -4.14221 | 36207 ft | 426 kts | 188° |
| 2026-04-18 07:01 | 41.68097 | -4.14892 | 36195 ft | 426 kts | 188° |
| 2026-04-18 07:02 | 41.62185 | -4.15559 | 36203 ft | 427 kts | 188° |
| 2026-04-18 07:02 | 41.56260 | -4.16230 | 36201 ft | 427 kts | 188° |
| 2026-04-18 07:03 | 41.50342 | -4.16895 | 36203 ft | 427 kts | 188° |
| 2026-04-18 07:03 | 41.44419 | -4.17563 | 36191 ft | 428 kts | 188° |
| 2026-04-18 07:04 | 41.38487 | -4.18229 | 36200 ft | 428 kts | 188° |
| 2026-04-18 07:04 | 41.32553 | -4.18894 | 36195 ft | 428 kts | 188° |
| 2026-04-18 07:05 | 41.26622 | -4.19555 | 36181 ft | 428 kts | 188° |
| 2026-04-18 07:05 | 41.20684 | -4.20221 | 36192 ft | 428 kts | 188° |
| 2026-04-18 07:06 | 41.14747 | -4.20885 | 36189 ft | 428 kts | 188° |
| 2026-04-18 07:06 | 41.08851 | -4.21543 | 36184 ft | 428 kts | 188° |
| 2026-04-18 07:07 | 41.02916 | -4.22204 | 36182 ft | 428 kts | 188° |
| 2026-04-18 07:07 | 40.96984 | -4.22859 | 36185 ft | 428 kts | 188° |
| 2026-04-18 07:08 | 40.91046 | -4.23518 | 36182 ft | 428 kts | 188° |
| 2026-04-18 07:08 | 40.85110 | -4.24172 | 36184 ft | 428 kts | 188° |
| 2026-04-18 07:09 | 40.79175 | -4.24825 | 36180 ft | 428 kts | 188° |
| 2026-04-18 07:09 | 40.73240 | -4.25478 | 36178 ft | 428 kts | 188° |
| 2026-04-18 07:10 | 40.67316 | -4.26126 | 36182 ft | 428 kts | 188° |
| 2026-04-18 07:10 | 40.61381 | -4.26776 | 36182 ft | 428 kts | 188° |
| 2026-04-18 07:11 | 40.55454 | -4.27426 | 36174 ft | 428 kts | 188° |
| 2026-04-18 07:11 | 40.49527 | -4.28073 | 36176 ft | 427 kts | 188° |
| 2026-04-18 07:12 | 40.44599 | -4.28611 | 36174 ft | 428 kts | 188° |
| 2026-04-18 07:12 | 40.38673 | -4.29258 | 36154 ft | 428 kts | 187° |
| 2026-04-18 07:13 | 40.32726 | -4.29905 | 36179 ft | 428 kts | 187° |
| 2026-04-18 07:13 | 40.26782 | -4.30552 | 36163 ft | 429 kts | 187° |
| 2026-04-18 07:14 | 40.20840 | -4.31192 | 36157 ft | 428 kts | 187° |
| 2026-04-18 07:14 | 40.14895 | -4.31834 | 36154 ft | 429 kts | 187° |
| 2026-04-18 07:15 | 40.08942 | -4.32480 | 36156 ft | 429 kts | 187° |
| 2026-04-18 07:15 | 40.02988 | -4.33122 | 36159 ft | 429 kts | 187° |
| 2026-04-18 07:16 | 39.97032 | -4.33793 | 36152 ft | 429 kts | 189° |
| 2026-04-18 07:16 | 39.91149 | -4.35001 | 36153 ft | 428 kts | 192° |
| 2026-04-18 07:17 | 39.85268 | -4.36280 | 36160 ft | 429 kts | 192° |
| 2026-04-18 07:17 | 39.79390 | -4.37551 | 36150 ft | 428 kts | 192° |
| 2026-04-18 07:18 | 39.73505 | -4.38820 | 36151 ft | 428 kts | 192° |
| 2026-04-18 07:18 | 39.67625 | -4.40076 | 36151 ft | 428 kts | 192° |
| 2026-04-18 07:19 | 39.61747 | -4.41327 | 36155 ft | 429 kts | 192° |
| 2026-04-18 07:19 | 39.55862 | -4.42579 | 36156 ft | 429 kts | 192° |
| 2026-04-18 07:20 | 39.49973 | -4.43832 | 36159 ft | 429 kts | 192° |
| 2026-04-18 07:20 | 39.44081 | -4.45080 | 36156 ft | 429 kts | 192° |
| 2026-04-18 07:21 | 39.38188 | -4.46330 | 36162 ft | 429 kts | 192° |
| 2026-04-18 07:21 | 39.32293 | -4.47579 | 36158 ft | 429 kts | 192° |
| 2026-04-18 07:22 | 39.26433 | -4.48817 | 36151 ft | 425 kts | 192° |
| 2026-04-18 07:22 | 39.20838 | -4.50901 | 36153 ft | 417 kts | 209° |
| 2026-04-18 07:23 | 39.15932 | -4.54933 | 36048 ft | 416 kts | 216° |
| 2026-04-18 07:23 | 39.13549 | -4.57019 | 35773 ft | 413 kts | 215° |
| 2026-04-18 07:23 | 39.11172 | -4.59075 | 35528 ft | 411 kts | 215° |
| 2026-04-18 07:24 | 39.08794 | -4.61113 | 35280 ft | 410 kts | 215° |
| 2026-04-18 07:24 | 39.06424 | -4.63134 | 35036 ft | 408 kts | 215° |
| 2026-04-18 07:24 | 39.04067 | -4.65141 | 34791 ft | 406 kts | 215° |
| 2026-04-18 07:24 | 39.01711 | -4.67143 | 34535 ft | 405 kts | 215° |
| 2026-04-18 07:25 | 38.99395 | -4.69109 | 34304 ft | 404 kts | 215° |
| 2026-04-18 07:25 | 38.97030 | -4.71114 | 34052 ft | 402 kts | 214° |
| 2026-04-18 07:25 | 38.94693 | -4.73093 | 33776 ft | 400 kts | 215° |
| 2026-04-18 07:25 | 38.92407 | -4.75031 | 33509 ft | 399 kts | 214° |
| 2026-04-18 07:26 | 38.90096 | -4.76989 | 33241 ft | 397 kts | 215° |
| 2026-04-18 07:26 | 38.87799 | -4.78935 | 32975 ft | 395 kts | 214° |
| 2026-04-18 07:26 | 38.85511 | -4.80871 | 32712 ft | 393 kts | 214° |
| 2026-04-18 07:26 | 38.83232 | -4.82796 | 32451 ft | 391 kts | 214° |
| 2026-04-18 07:27 | 38.80960 | -4.84714 | 32191 ft | 390 kts | 214° |
| 2026-04-18 07:27 | 38.78701 | -4.86617 | 31929 ft | 388 kts | 214° |
| 2026-04-18 07:27 | 38.76447 | -4.88514 | 31643 ft | 387 kts | 214° |
| 2026-04-18 07:27 | 38.74203 | -4.90400 | 31313 ft | 384 kts | 214° |
| 2026-04-18 07:28 | 38.71975 | -4.92272 | 30943 ft | 381 kts | 214° |
| 2026-04-18 07:28 | 38.69763 | -4.94131 | 30478 ft | 379 kts | 214° |
| 2026-04-18 07:28 | 38.67564 | -4.95977 | 29928 ft | 376 kts | 214° |
| 2026-04-18 07:28 | 38.65387 | -4.97801 | 29425 ft | 373 kts | 214° |
| 2026-04-18 07:29 | 38.63225 | -4.99614 | 28911 ft | 370 kts | 214° |
| 2026-04-18 07:29 | 38.61082 | -5.01410 | 28401 ft | 367 kts | 214° |
| 2026-04-18 07:29 | 38.58951 | -5.03194 | 27893 ft | 365 kts | 214° |
| 2026-04-18 07:29 | 38.56836 | -5.04962 | 27396 ft | 362 kts | 214° |
| 2026-04-18 07:30 | 38.54733 | -5.06718 | 26906 ft | 360 kts | 214° |
| 2026-04-18 07:30 | 38.52644 | -5.08462 | 26418 ft | 358 kts | 214° |
| 2026-04-18 07:30 | 38.50597 | -5.10253 | 25949 ft | 355 kts | 219° |
| 2026-04-18 07:30 | 38.48710 | -5.12265 | 25484 ft | 352 kts | 222° |
| 2026-04-18 07:31 | 38.46868 | -5.14316 | 25028 ft | 350 kts | 222° |
| 2026-04-18 07:31 | 38.45037 | -5.16353 | 24579 ft | 348 kts | 222° |
| 2026-04-18 07:31 | 38.43217 | -5.18373 | 24136 ft | 346 kts | 222° |
| 2026-04-18 07:31 | 38.41400 | -5.20382 | 23696 ft | 344 kts | 222° |
| 2026-04-18 07:32 | 38.39593 | -5.22373 | 23179 ft | 342 kts | 222° |
| 2026-04-18 07:32 | 38.37795 | -5.24352 | 22669 ft | 340 kts | 222° |
| 2026-04-18 07:32 | 38.36006 | -5.26312 | 22168 ft | 338 kts | 222° |
| 2026-04-18 07:32 | 38.34229 | -5.28264 | 21672 ft | 336 kts | 222° |
| 2026-04-18 07:33 | 38.32468 | -5.30198 | 21187 ft | 334 kts | 221° |
| 2026-04-18 07:33 | 38.30713 | -5.32125 | 20715 ft | 332 kts | 221° |
| 2026-04-18 07:33 | 38.28966 | -5.34041 | 20240 ft | 330 kts | 221° |
| 2026-04-18 07:33 | 38.27230 | -5.35944 | 19779 ft | 329 kts | 221° |
| 2026-04-18 07:34 | 38.25502 | -5.37840 | 19406 ft | 328 kts | 221° |
| 2026-04-18 07:34 | 38.23775 | -5.39731 | 19138 ft | 327 kts | 221° |
| 2026-04-18 07:34 | 38.22052 | -5.41617 | 18885 ft | 326 kts | 221° |
| 2026-04-18 07:34 | 38.20336 | -5.43494 | 18624 ft | 325 kts | 221° |
| 2026-04-18 07:35 | 38.18623 | -5.45366 | 18308 ft | 324 kts | 221° |
| 2026-04-18 07:35 | 38.16919 | -5.47229 | 17949 ft | 322 kts | 221° |
| 2026-04-18 07:35 | 38.15222 | -5.49081 | 17573 ft | 321 kts | 221° |
| 2026-04-18 07:35 | 38.13536 | -5.50919 | 17197 ft | 319 kts | 221° |
| 2026-04-18 07:36 | 38.11859 | -5.52748 | 16813 ft | 317 kts | 221° |
| 2026-04-18 07:36 | 38.10194 | -5.54564 | 16480 ft | 315 kts | 221° |
| 2026-04-18 07:36 | 38.08536 | -5.56370 | 16133 ft | 313 kts | 221° |
| 2026-04-18 07:36 | 38.06888 | -5.58164 | 15746 ft | 312 kts | 220° |
| 2026-04-18 07:37 | 38.05239 | -5.59943 | 15408 ft | 309 kts | 220° |
| 2026-04-18 07:37 | 38.03622 | -5.61681 | 14982 ft | 307 kts | 220° |
| 2026-04-18 07:37 | 38.02000 | -5.63425 | 14622 ft | 304 kts | 220° |
| 2026-04-18 07:37 | 38.00390 | -5.65158 | 14296 ft | 302 kts | 220° |
| 2026-04-18 07:38 | 37.98784 | -5.66886 | 13926 ft | 304 kts | 220° |
| 2026-04-18 07:38 | 37.97183 | -5.68607 | 13522 ft | 301 kts | 220° |
| 2026-04-18 07:38 | 37.95592 | -5.70317 | 13213 ft | 297 kts | 219° |
| 2026-04-18 07:38 | 37.94013 | -5.72012 | 12882 ft | 298 kts | 219° |
| 2026-04-18 07:39 | 37.92434 | -5.73706 | 12531 ft | 297 kts | 219° |
| 2026-04-18 07:39 | 37.90864 | -5.75391 | 12166 ft | 296 kts | 219° |
| 2026-04-18 07:39 | 37.89298 | -5.77072 | 11796 ft | 294 kts | 219° |
| 2026-04-18 07:39 | 37.87739 | -5.78742 | 11432 ft | 293 kts | 219° |
| 2026-04-18 07:40 | 37.86185 | -5.80406 | 11070 ft | 292 kts | 219° |
| 2026-04-18 07:40 | 37.84635 | -5.82065 | 10708 ft | 292 kts | 219° |
| 2026-04-18 07:40 | 37.83090 | -5.83716 | 10348 ft | 289 kts | 219° |
| 2026-04-18 07:40 | 37.81556 | -5.85357 | 9990 ft | 287 kts | 219° |
| 2026-04-18 07:41 | 37.80033 | -5.86986 | 9604 ft | 285 kts | 219° |
| 2026-04-18 07:41 | 37.78521 | -5.88599 | 9218 ft | 283 kts | 219° |
| 2026-04-18 07:41 | 37.77021 | -5.90199 | 8841 ft | 281 kts | 219° |
| 2026-04-18 07:41 | 37.75530 | -5.91790 | 8454 ft | 279 kts | 219° |
| 2026-04-18 07:42 | 37.74049 | -5.93370 | 8082 ft | 278 kts | 219° |
| 2026-04-18 07:42 | 37.72577 | -5.94937 | 7714 ft | 276 kts | 218° |
| 2026-04-18 07:42 | 37.71113 | -5.96497 | 7403 ft | 275 kts | 218° |
| 2026-04-18 07:42 | 37.69655 | -5.98047 | 7204 ft | 274 kts | 218° |
| 2026-04-18 07:43 | 37.68199 | -5.99598 | 6924 ft | 272 kts | 218° |
| 2026-04-18 07:43 | 37.66756 | -6.01133 | 6626 ft | 271 kts | 218° |
| 2026-04-18 07:43 | 37.65315 | -6.02663 | 6299 ft | 269 kts | 218° |
| 2026-04-18 07:43 | 37.63889 | -6.04178 | 5982 ft | 267 kts | 218° |
| 2026-04-18 07:44 | 37.62470 | -6.05684 | 5654 ft | 266 kts | 218° |
| 2026-04-18 07:44 | 37.61065 | -6.07176 | 5338 ft | 263 kts | 218° |
| 2026-04-18 07:44 | 37.59668 | -6.08659 | 5024 ft | 261 kts | 218° |
| 2026-04-18 07:44 | 37.58271 | -6.10095 | 4704 ft | 258 kts | 213° |
| 2026-04-18 07:45 | 37.56737 | -6.11247 | 4376 ft | 255 kts | 206° |
| 2026-04-18 07:45 | 37.55144 | -6.12201 | 4037 ft | 251 kts | 202° |
| 2026-04-18 07:45 | 37.53547 | -6.13015 | 3701 ft | 245 kts | 199° |
| 2026-04-18 07:45 | 37.51917 | -6.13715 | 3377 ft | 249 kts | 196° |
| 2026-04-18 07:46 | 37.50320 | -6.14383 | 3013 ft | 236 kts | 208° |
| 2026-04-18 07:46 | 37.48929 | -6.15428 | 2691 ft | 232 kts | 200° |
| 2026-04-18 07:46 | 37.47389 | -6.15877 | 2386 ft | 230 kts | 188° |
| 2026-04-18 07:46 | 37.45837 | -6.16190 | 2069 ft | 215 kts | 186° |
| 2026-04-18 07:47 | 37.44391 | -6.16193 | 2051 ft | 204 kts | 167° |
| 2026-04-18 07:47 | 37.43164 | -6.15404 | 1976 ft | 199 kts | 135° |
| 2026-04-18 07:47 | 37.42295 | -6.14076 | 1916 ft | 193 kts | 115° |
| 2026-04-18 07:47 | 37.41999 | -6.12461 | 1850 ft | 187 kts | 99° |
| 2026-04-18 07:48 | 37.41782 | -6.10946 | 1795 ft | 169 kts | 95° |
| 2026-04-18 07:48 | 37.41754 | -6.09513 | 1687 ft | 156 kts | 90° |
| 2026-04-18 07:48 | 37.41747 | -6.08079 | 1867 ft | 169 kts | 90° |
| 2026-04-18 07:48 | 37.41726 | -6.06590 | 2010 ft | 171 kts | 91° |
| 2026-04-18 07:49 | 37.41708 | -6.05097 | 1988 ft | 171 kts | 91° |
| 2026-04-18 07:49 | 37.41697 | -6.03652 | 1986 ft | 162 kts | 89° |
| 2026-04-18 07:49 | 37.41729 | -6.02266 | 1991 ft | 156 kts | 89° |
| 2026-04-18 07:49 | 37.41733 | -6.00893 | 1766 ft | 160 kts | 90° |
| 2026-04-18 07:50 | 37.41740 | -5.99495 | 1498 ft | 154 kts | 89° |
| 2026-04-18 07:50 | 37.41754 | -5.98200 | 1062 ft | 142 kts | 89° |
| 2026-04-18 07:50 | 37.41757 | -5.96992 | 898 ft | 139 kts | 88° |
| 2026-04-18 07:50 | 37.41772 | -5.95767 | 714 ft | 141 kts | 88° |
| 2026-04-18 07:51 | 37.41774 | -5.94533 | 623 ft | 140 kts | 89° |
| 2026-04-18 07:51 | 37.41773 | -5.93305 | 472 ft | 140 kts | 88° |
| 2026-04-18 07:51 | 37.41785 | -5.92082 | 269 ft | 139 kts | 88° |
| 2026-04-18 07:51 | 37.41787 | -5.90871 | 109 ft | 135 kts | 88° |
| 2026-04-18 07:52 | 37.41792 | -5.89861 | 104 ft | 79 kts | 89° |
| 2026-04-18 07:52 | 37.41793 | -5.89412 | 105 ft | 37 kts | 88° |
| 2026-04-18 07:52 | 37.41798 | -5.89270 | 104 ft | 11 kts | 56° |
| 2026-04-18 07:52 | 37.41872 | -5.89276 | 105 ft | 13 kts | 328° |
| 2026-04-18 07:53 | 37.41954 | -5.89334 | 104 ft | 14 kts | 330° |
| 2026-04-18 07:53 | 37.42017 | -5.89400 | 104 ft | 11 kts | 312° |
| 2026-04-18 07:53 | 37.42076 | -5.89478 | 103 ft | 13 kts | 314° |
| 2026-04-18 07:53 | 37.42144 | -5.89565 | 102 ft | 15 kts | 314° |
| 2026-04-18 07:54 | 37.42216 | -5.89657 | 101 ft | 13 kts | 314° |
| 2026-04-18 07:54 | 37.42263 | -5.89717 | 99 ft | 11 kts | 319° |
| 2026-04-18 07:54 | 37.42312 | -5.89754 | 101 ft | 1 kts | 326° |
| 2026-04-18 07:54 | 37.42320 | -5.89764 | 99 ft | 3 kts | 314° |
| 2026-04-18 07:55 | 37.42333 | -5.89781 | 101 ft | 0 kts | 315° |
| 2026-04-18 07:55 | 37.42337 | -5.89786 | 100 ft | 1 kts | 315° |
| 2026-04-18 07:55 | 37.42338 | -5.89786 | 100 ft | 0 kts | 315° |